createdAt,value
2019-03-31T00:01:58.241Z,77.18
2019-03-31T00:04:29.590Z,77.51
2019-03-31T00:07:00.941Z,77.07
2019-03-31T00:09:32.436Z,77.27
2019-03-31T00:12:03.779Z,77.15
2019-03-31T00:14:35.136Z,77.26
2019-03-31T00:17:06.462Z,76.56
2019-03-31T00:19:37.784Z,76.33
2019-03-31T00:22:09.148Z,76.99
2019-03-31T00:24:40.357Z,77.38
2019-03-31T00:27:11.716Z,77.69
2019-03-31T00:29:43.044Z,76.71
2019-03-31T00:32:14.311Z,77.50
2019-03-31T00:34:45.510Z,76.64
2019-03-31T00:37:16.864Z,77.65
2019-03-31T00:39:48.197Z,77.38
2019-03-31T00:42:19.594Z,77.27
2019-03-31T00:44:51.011Z,76.81
2019-03-31T00:47:22.382Z,76.77
2019-03-31T00:49:53.736Z,77.03
2019-03-31T00:52:25.095Z,77.79
2019-03-31T00:54:56.515Z,77.37
2019-03-31T00:57:27.894Z,78.18
2019-03-31T00:59:59.290Z,77.04
2019-03-31T01:02:32.175Z,78.15
2019-03-31T01:05:04.396Z,76.82
2019-03-31T01:07:35.754Z,77.21
2019-03-31T01:10:07.144Z,77.70
2019-03-31T01:12:40.108Z,76.91
2019-03-31T01:15:14.010Z,76.86
2019-03-31T01:17:45.369Z,77.75
2019-03-31T01:20:16.750Z,78.00
2019-03-31T01:22:48.086Z,77.60
2019-03-31T01:25:19.752Z,78.15
2019-03-31T01:27:51.020Z,78.08
2019-03-31T01:30:22.933Z,79.41
2019-03-31T01:32:54.380Z,78.32
2019-03-31T01:35:25.460Z,78.18
2019-03-31T01:37:56.803Z,78.97
2019-03-31T01:40:28.063Z,78.12
2019-03-31T01:42:59.422Z,78.57
2019-03-31T01:45:30.765Z,78.56
2019-03-31T01:48:02.125Z,78.02
2019-03-31T01:50:33.446Z,78.13
2019-03-31T01:53:04.795Z,79.27
2019-03-31T01:55:36.168Z,78.53
2019-03-31T01:58:07.625Z,78.66
2019-03-31T02:00:43.549Z,78.73
2019-03-31T02:03:14.956Z,78.76
2019-03-31T02:05:46.346Z,77.77
2019-03-31T02:08:17.738Z,78.51
2019-03-31T02:10:49.022Z,79.76
2019-03-31T02:13:20.393Z,80.11
2019-03-31T02:15:52.033Z,79.53
2019-03-31T02:18:23.393Z,78.05
2019-03-31T02:20:54.800Z,78.31
2019-03-31T02:23:26.065Z,79.48
2019-03-31T02:25:57.406Z,78.99
2019-03-31T02:28:28.772Z,78.85
2019-03-31T02:31:00.176Z,78.97
2019-03-31T02:33:31.539Z,81.13
2019-03-31T02:36:02.937Z,79.54
2019-03-31T02:38:34.227Z,79.45
2019-03-31T02:41:05.564Z,79.80
2019-03-31T02:43:37.143Z,79.17
2019-03-31T02:46:08.488Z,79.58
2019-03-31T02:48:39.773Z,80.13
2019-03-31T02:51:11.243Z,80.12
2019-03-31T02:53:42.582Z,79.68
2019-03-31T02:56:13.791Z,80.22
2019-03-31T02:58:45.286Z,79.90
2019-03-31T03:01:16.967Z,79.85
2019-03-31T03:03:48.246Z,79.93
2019-03-31T03:06:21.153Z,80.06
2019-03-31T03:08:52.427Z,80.63
2019-03-31T03:11:23.801Z,81.29
2019-03-31T03:13:55.156Z,79.29
2019-03-31T03:16:26.510Z,80.67
2019-03-31T03:18:57.882Z,79.91
2019-03-31T03:21:29.154Z,79.45
2019-03-31T03:24:00.482Z,79.58
2019-03-31T03:26:31.903Z,79.84
2019-03-31T03:29:03.240Z,79.55
2019-03-31T03:31:34.621Z,80.44
2019-03-31T03:34:05.994Z,80.07
2019-03-31T03:36:37.287Z,79.97
2019-03-31T03:39:08.774Z,79.44
2019-03-31T03:41:40.159Z,79.34
2019-03-31T03:44:11.551Z,79.53
2019-03-31T03:46:42.923Z,79.08
2019-03-31T03:49:14.526Z,79.51
2019-03-31T03:51:45.938Z,80.05
2019-03-31T03:54:17.224Z,80.15
2019-03-31T03:56:48.612Z,80.78
2019-03-31T03:59:21.802Z,79.67
2019-03-31T04:01:52.438Z,79.42
2019-03-31T04:04:23.541Z,78.76
2019-03-31T04:06:54.871Z,81.61
2019-03-31T04:09:26.223Z,79.25
2019-03-31T04:11:57.615Z,78.26
2019-03-31T04:14:29.101Z,78.05
2019-03-31T04:17:00.464Z,78.14
2019-03-31T04:19:31.806Z,79.28
2019-03-31T04:22:03.188Z,78.51
2019-03-31T04:24:34.535Z,77.69
2019-03-31T04:27:05.835Z,78.44
2019-03-31T04:29:38.333Z,77.44
2019-03-31T04:32:09.682Z,74.92
2019-03-31T04:34:41.021Z,75.67
2019-03-31T04:37:12.404Z,76.94
2019-03-31T04:39:43.728Z,72.45
2019-03-31T04:42:15.057Z,72.28
2019-03-31T04:44:46.538Z,73.20
2019-03-31T04:47:17.867Z,72.73
2019-03-31T04:49:49.220Z,74.16
2019-03-31T04:52:20.531Z,72.88
2019-03-31T04:54:51.874Z,71.24
2019-03-31T04:57:23.254Z,69.19
2019-03-31T04:59:54.643Z,68.74
2019-03-31T05:02:27.365Z,67.42
2019-03-31T05:04:58.853Z,67.95
2019-03-31T05:07:30.192Z,66.38
2019-03-31T05:10:01.528Z,67.04
2019-03-31T05:12:32.802Z,64.89
2019-03-31T05:15:04.260Z,64.94
2019-03-31T05:17:36.066Z,64.38
2019-03-31T05:20:07.462Z,64.50
2019-03-31T05:22:38.868Z,63.61
2019-03-31T05:25:10.066Z,62.33
2019-03-31T05:27:41.384Z,61.73
2019-03-31T05:30:12.742Z,60.15
2019-03-31T05:32:44.115Z,60.52
2019-03-31T05:35:15.497Z,60.00
2019-03-31T05:37:51.149Z,61.12
2019-03-31T05:40:19.961Z,60.56
2019-03-31T05:42:51.330Z,59.79
2019-03-31T05:45:22.653Z,60.87
2019-03-31T05:47:54.005Z,59.57
2019-03-31T05:50:25.394Z,58.55
2019-03-31T05:52:56.741Z,59.44
2019-03-31T05:55:28.109Z,59.05
2019-03-31T05:57:59.540Z,57.25
2019-03-31T06:00:34.353Z,57.25
2019-03-31T06:03:05.695Z,58.04
2019-03-31T06:05:37.052Z,58.32
2019-03-31T06:08:09.706Z,57.40
2019-03-31T06:10:41.073Z,57.92
2019-03-31T06:13:13.423Z,56.82
2019-03-31T06:15:44.790Z,56.34
2019-03-31T06:18:16.150Z,58.37
2019-03-31T06:20:47.507Z,57.53
2019-03-31T06:23:18.863Z,58.12
2019-03-31T06:25:50.252Z,57.77
2019-03-31T06:28:21.569Z,57.65
2019-03-31T06:30:52.951Z,57.62
2019-03-31T06:33:24.552Z,56.01
2019-03-31T06:35:55.941Z,56.60
2019-03-31T06:38:27.272Z,56.59
2019-03-31T06:40:58.915Z,55.58
2019-03-31T06:43:30.363Z,54.66
2019-03-31T06:46:02.962Z,54.93
2019-03-31T06:48:34.519Z,54.68
2019-03-31T06:51:05.899Z,55.41
2019-03-31T06:53:37.451Z,54.42
2019-03-31T06:56:08.884Z,53.95
2019-03-31T06:58:40.355Z,52.04
2019-03-31T07:01:11.905Z,51.54
2019-03-31T07:03:43.476Z,51.92
2019-03-31T07:06:14.890Z,52.17
2019-03-31T07:08:46.806Z,53.04
2019-03-31T07:11:17.521Z,51.71
2019-03-31T07:13:48.751Z,51.43
2019-03-31T07:16:20.098Z,51.32
2019-03-31T07:18:51.428Z,51.92
2019-03-31T07:21:23.070Z,51.70
2019-03-31T07:23:54.330Z,50.53
2019-03-31T07:26:26.665Z,50.26
2019-03-31T07:28:58.154Z,50.33
2019-03-31T07:31:29.543Z,50.38
2019-03-31T07:34:00.968Z,50.32
2019-03-31T07:36:32.299Z,50.39
2019-03-31T07:39:05.379Z,51.57
2019-03-31T07:41:36.819Z,51.59
2019-03-31T07:44:08.146Z,51.24
2019-03-31T07:46:39.761Z,50.74
2019-03-31T07:49:11.102Z,49.20
2019-03-31T07:51:43.967Z,50.57
2019-03-31T07:54:15.368Z,48.97
2019-03-31T07:56:46.882Z,49.28
2019-03-31T07:59:18.375Z,48.68
2019-03-31T08:01:49.760Z,48.91
2019-03-31T08:04:21.128Z,48.20
2019-03-31T08:06:52.415Z,47.17
2019-03-31T08:09:23.862Z,47.86
2019-03-31T08:11:55.216Z,46.72
2019-03-31T08:14:26.693Z,48.93
2019-03-31T08:16:58.025Z,47.21
2019-03-31T08:19:29.432Z,46.95
2019-03-31T08:22:00.770Z,47.79
2019-03-31T08:24:35.225Z,47.26
2019-03-31T08:27:08.871Z,47.16
2019-03-31T08:29:40.785Z,47.39
2019-03-31T08:32:12.696Z,46.38
2019-03-31T08:34:43.334Z,46.40
2019-03-31T08:37:14.546Z,46.93
2019-03-31T08:39:45.902Z,46.86
2019-03-31T08:42:17.361Z,45.24
2019-03-31T08:44:48.682Z,46.64
2019-03-31T08:47:20.213Z,45.40
2019-03-31T08:49:51.689Z,44.69
2019-03-31T08:52:23.132Z,45.18
2019-03-31T08:54:54.486Z,45.11
2019-03-31T08:57:25.844Z,44.76
2019-03-31T08:59:57.181Z,43.81
2019-03-31T09:02:33.152Z,42.98
2019-03-31T09:05:06.538Z,43.83
2019-03-31T09:07:41.596Z,43.36
2019-03-31T09:10:11.122Z,42.61
2019-03-31T09:12:42.488Z,42.80
2019-03-31T09:15:13.712Z,43.36
2019-03-31T09:17:45.050Z,43.26
2019-03-31T09:20:18.031Z,42.69
2019-03-31T09:22:49.358Z,43.09
2019-03-31T09:25:20.705Z,43.39
2019-03-31T09:27:52.085Z,42.94
2019-03-31T09:30:23.542Z,42.02
2019-03-31T09:32:54.886Z,41.99
2019-03-31T09:35:26.223Z,42.29
2019-03-31T09:37:57.574Z,42.30
2019-03-31T09:40:29.984Z,41.51
2019-03-31T09:43:01.469Z,39.84
2019-03-31T09:45:33.121Z,40.20
2019-03-31T09:48:04.555Z,40.80
2019-03-31T09:50:35.927Z,42.41
2019-03-31T09:53:07.283Z,41.63
2019-03-31T09:55:38.632Z,39.77
2019-03-31T09:58:09.987Z,39.84
2019-03-31T10:00:50.268Z,39.25
2019-03-31T10:03:22.609Z,38.92
2019-03-31T10:05:53.929Z,39.16
2019-03-31T10:08:25.349Z,39.09
2019-03-31T10:10:56.683Z,38.71
2019-03-31T10:13:28.024Z,39.11
2019-03-31T10:15:59.395Z,40.54
2019-03-31T10:18:30.757Z,40.11
2019-03-31T10:21:02.102Z,39.42
2019-03-31T10:23:33.464Z,39.10
2019-03-31T10:26:04.841Z,38.87
2019-03-31T10:28:36.217Z,39.54
2019-03-31T10:31:07.576Z,39.52
2019-03-31T10:33:38.944Z,39.38
2019-03-31T10:36:12.873Z,38.02
2019-03-31T10:38:43.370Z,38.02
2019-03-31T10:41:15.825Z,38.72
2019-03-31T10:43:46.965Z,38.07
2019-03-31T10:46:18.048Z,38.47
2019-03-31T10:48:49.344Z,38.99
2019-03-31T10:51:20.737Z,37.42
2019-03-31T10:53:52.215Z,37.88
2019-03-31T10:56:23.633Z,37.57
2019-03-31T10:58:54.987Z,37.93
2019-03-31T11:01:26.394Z,37.22
2019-03-31T11:03:57.769Z,38.37
2019-03-31T11:06:29.135Z,37.46
2019-03-31T11:09:00.409Z,37.64
2019-03-31T11:11:31.755Z,37.52
2019-03-31T11:14:04.078Z,38.24
2019-03-31T11:16:36.768Z,37.01
2019-03-31T11:19:08.215Z,37.67
2019-03-31T11:21:41.289Z,37.36
2019-03-31T11:24:12.637Z,36.86
2019-03-31T11:26:43.994Z,36.31
2019-03-31T11:29:16.296Z,36.89
2019-03-31T11:31:47.780Z,37.08
2019-03-31T11:34:19.852Z,37.22
2019-03-31T11:36:51.344Z,37.06
2019-03-31T11:39:22.678Z,36.83
2019-03-31T11:41:54.091Z,35.34
2019-03-31T11:44:27.695Z,35.16
2019-03-31T11:46:58.507Z,35.58
2019-03-31T11:49:29.859Z,35.90
2019-03-31T11:52:01.240Z,35.76
2019-03-31T11:54:32.660Z,35.45
2019-03-31T11:57:04.005Z,35.09
2019-03-31T11:59:35.389Z,34.05
2019-03-31T12:02:06.764Z,34.45
2019-03-31T12:04:39.165Z,35.54
2019-03-31T12:07:10.544Z,34.69
2019-03-31T12:09:42.000Z,34.29
2019-03-31T12:12:13.652Z,34.29
2019-03-31T12:14:59.604Z,34.11
2019-03-31T12:17:18.081Z,32.89
2019-03-31T12:19:49.470Z,32.81
2019-03-31T12:22:20.852Z,34.00
2019-03-31T12:24:52.693Z,33.99
2019-03-31T12:27:24.096Z,33.97
2019-03-31T12:29:55.496Z,34.23
2019-03-31T12:32:26.819Z,33.54
2019-03-31T12:34:58.182Z,33.67
2019-03-31T12:37:41.802Z,33.31
2019-03-31T12:40:02.712Z,33.28
2019-03-31T12:42:34.084Z,34.30
2019-03-31T12:45:06.371Z,33.79
2019-03-31T12:47:37.846Z,33.87
2019-03-31T12:50:09.323Z,34.72
2019-03-31T12:52:46.563Z,33.83
2019-03-31T12:55:13.731Z,34.30
2019-03-31T12:57:45.119Z,34.07
2019-03-31T13:00:16.464Z,34.44
2019-03-31T13:02:47.774Z,34.65
2019-03-31T13:05:19.140Z,33.79
2019-03-31T13:07:56.441Z,34.59
2019-03-31T13:10:23.573Z,34.61
2019-03-31T13:12:55.623Z,34.34
2019-03-31T13:15:27.890Z,34.51
2019-03-31T13:17:59.276Z,34.72
2019-03-31T13:20:30.737Z,33.81
2019-03-31T13:23:02.118Z,33.38
2019-03-31T13:25:34.562Z,33.66
2019-03-31T13:28:06.076Z,34.00
2019-03-31T13:30:37.546Z,34.16
2019-03-31T13:33:08.923Z,34.20
2019-03-31T13:35:40.311Z,33.58
2019-03-31T13:38:11.861Z,33.54
2019-03-31T13:40:43.269Z,33.33
2019-03-31T13:43:14.552Z,33.43
2019-03-31T13:45:45.987Z,33.20
2019-03-31T13:48:17.373Z,33.49
2019-03-31T13:50:48.738Z,34.29
2019-03-31T13:53:20.117Z,34.21
2019-03-31T13:55:51.597Z,34.02
2019-03-31T13:58:23.845Z,34.61
2019-03-31T14:00:57.133Z,34.87
2019-03-31T14:03:28.737Z,34.35
2019-03-31T14:06:00.078Z,34.12
2019-03-31T14:08:32.118Z,33.56
2019-03-31T14:11:03.502Z,33.69
2019-03-31T14:13:34.844Z,34.32
2019-03-31T14:16:07.001Z,34.95
2019-03-31T14:18:38.397Z,34.76
2019-03-31T14:21:09.703Z,34.43
2019-03-31T14:23:43.756Z,34.61
2019-03-31T14:26:14.192Z,34.62
2019-03-31T14:28:45.549Z,34.67
2019-03-31T14:31:16.794Z,34.97
2019-03-31T14:33:48.161Z,35.27
2019-03-31T14:36:19.522Z,35.66
2019-03-31T14:38:50.883Z,35.66
2019-03-31T14:41:22.322Z,36.33
2019-03-31T14:43:53.717Z,36.15
2019-03-31T14:46:25.056Z,36.30
2019-03-31T14:48:56.315Z,36.58
2019-03-31T14:51:27.620Z,36.52
2019-03-31T14:53:58.978Z,36.12
2019-03-31T14:56:30.329Z,36.16
2019-03-31T14:59:01.725Z,36.41
2019-03-31T15:01:33.124Z,36.87
2019-03-31T15:04:04.478Z,37.01
2019-03-31T15:06:35.824Z,36.81
2019-03-31T15:09:08.803Z,37.04
2019-03-31T15:11:39.476Z,36.79
2019-03-31T15:14:10.599Z,37.25
2019-03-31T15:16:41.968Z,37.21
2019-03-31T15:19:13.295Z,37.72
2019-03-31T15:21:44.657Z,37.99
2019-03-31T15:24:15.978Z,37.98
2019-03-31T15:26:47.333Z,38.30
2019-03-31T15:29:18.705Z,38.44
2019-03-31T15:31:50.075Z,38.97
2019-03-31T15:34:21.423Z,38.96
2019-03-31T15:36:52.780Z,39.72
2019-03-31T15:39:25.175Z,39.45
2019-03-31T15:41:56.505Z,40.15
2019-03-31T15:44:27.874Z,39.98
2019-03-31T15:46:59.272Z,40.02
2019-03-31T15:49:30.637Z,40.71
2019-03-31T15:52:04.050Z,41.20
2019-03-31T15:54:35.382Z,41.48
2019-03-31T15:57:06.716Z,40.70
2019-03-31T15:59:38.045Z,42.33
2019-03-31T16:02:09.425Z,43.21
2019-03-31T16:04:40.803Z,44.58
2019-03-31T16:07:12.228Z,44.00
2019-03-31T16:09:43.509Z,45.02
2019-03-31T16:12:14.883Z,45.53
2019-03-31T16:14:46.262Z,45.97
2019-03-31T16:17:17.641Z,46.04
2019-03-31T16:19:49.002Z,45.90
2019-03-31T16:22:20.356Z,46.77
2019-03-31T16:24:54.284Z,46.77
2019-03-31T16:27:25.627Z,47.06
2019-03-31T16:29:56.982Z,47.03
2019-03-31T16:32:28.249Z,47.95
2019-03-31T16:34:59.655Z,47.24
2019-03-31T16:37:31.040Z,48.84
2019-03-31T16:40:02.390Z,49.07
2019-03-31T16:42:33.785Z,48.30
2019-03-31T16:45:06.800Z,49.80
2019-03-31T16:47:38.157Z,50.11
2019-03-31T16:50:10.150Z,49.94
2019-03-31T16:52:40.786Z,49.70
2019-03-31T16:55:11.842Z,49.21
2019-03-31T16:57:43.372Z,49.24
2019-03-31T17:00:14.708Z,49.61
2019-03-31T17:02:46.000Z,49.44
2019-03-31T17:05:22.063Z,49.44
2019-03-31T17:07:50.424Z,49.43
2019-03-31T17:10:21.800Z,49.73
2019-03-31T17:12:53.146Z,50.45
2019-03-31T17:15:24.411Z,49.58
2019-03-31T17:17:55.840Z,50.31
2019-03-31T17:20:27.178Z,50.80
2019-03-31T17:22:58.541Z,50.49
2019-03-31T17:25:29.931Z,51.17
2019-03-31T17:28:01.283Z,51.48
2019-03-31T17:30:32.657Z,51.92
2019-03-31T17:33:04.016Z,52.23
2019-03-31T17:35:35.397Z,51.91
2019-03-31T17:38:06.818Z,51.86
2019-03-31T17:40:38.206Z,51.72
2019-03-31T17:43:09.552Z,51.73
2019-03-31T17:45:40.900Z,52.37
2019-03-31T17:48:12.244Z,52.88
2019-03-31T17:50:43.608Z,53.04
2019-03-31T17:53:14.888Z,53.47
2019-03-31T17:55:46.266Z,53.95
2019-03-31T17:58:17.654Z,53.73
2019-03-31T18:00:49.052Z,54.00
2019-03-31T18:03:20.453Z,53.95
2019-03-31T18:05:51.841Z,54.43
2019-03-31T18:08:23.231Z,55.23
2019-03-31T18:10:55.754Z,56.09
2019-03-31T18:13:27.138Z,55.47
2019-03-31T18:15:58.514Z,55.52
2019-03-31T18:18:29.921Z,55.91
2019-03-31T18:21:01.295Z,56.68
2019-03-31T18:23:32.636Z,57.12
2019-03-31T18:26:03.973Z,56.73
2019-03-31T18:28:35.329Z,57.25
2019-03-31T18:31:06.746Z,57.99
2019-03-31T18:33:38.114Z,58.70
2019-03-31T18:36:09.506Z,58.64
2019-03-31T18:38:40.858Z,57.89
2019-03-31T18:41:13.496Z,58.62
2019-03-31T18:43:51.637Z,58.67
2019-03-31T18:46:18.344Z,59.17
2019-03-31T18:48:49.825Z,58.54
2019-03-31T18:51:21.232Z,59.95
2019-03-31T18:54:10.245Z,59.88
2019-03-31T18:56:46.179Z,59.90
2019-03-31T18:59:24.858Z,59.79
2019-03-31T19:02:02.031Z,59.69
2019-03-31T19:04:35.003Z,60.25
2019-03-31T19:07:07.931Z,59.46
2019-03-31T19:09:46.657Z,59.78
2019-03-31T19:12:35.921Z,60.48
2019-03-31T19:15:11.664Z,60.02
2019-03-31T19:17:44.662Z,60.51
2019-03-31T19:20:26.466Z,60.91
2019-03-31T19:23:15.515Z,61.01
2019-03-31T19:26:04.545Z,61.07
2019-03-31T19:28:37.312Z,60.79
2019-03-31T19:31:26.711Z,61.62
2019-03-31T19:34:14.654Z,61.41
2019-03-31T19:36:50.293Z,60.95
2019-03-31T19:39:23.226Z,61.10
2019-03-31T19:42:05.205Z,61.83
2019-03-31T19:44:54.191Z,62.07
2019-03-31T19:47:33.035Z,62.22
2019-03-31T19:50:13.444Z,62.18
2019-03-31T19:52:49.106Z,61.36
2019-03-31T19:55:29.211Z,61.83
2019-03-31T19:58:08.377Z,61.53
2019-03-31T20:00:44.278Z,61.40
2019-03-31T20:03:20.240Z,61.43
2019-03-31T20:05:56.235Z,61.99
2019-03-31T20:08:44.624Z,61.34
2019-03-31T20:11:23.787Z,61.58
2019-03-31T20:14:05.807Z,60.92
2019-03-31T20:16:50.688Z,61.33
2019-03-31T20:19:39.907Z,60.84
2019-03-31T20:22:30.976Z,61.57
2019-03-31T20:25:06.861Z,61.60
2019-03-31T20:27:39.791Z,61.77
2019-03-31T20:30:15.510Z,61.92
2019-03-31T20:33:00.668Z,62.43
2019-03-31T20:35:49.774Z,62.28
2019-03-31T20:38:25.624Z,62.43
2019-03-31T20:41:04.693Z,62.62
2019-03-31T20:43:41.737Z,62.16
2019-03-31T20:46:13.085Z,61.78
2019-03-31T20:48:44.491Z,62.39
2019-03-31T20:51:15.833Z,62.71
2019-03-31T20:53:48.166Z,63.03
2019-03-31T20:56:19.559Z,63.08
2019-03-31T20:58:50.944Z,63.02
2019-03-31T21:01:22.323Z,62.83
2019-03-31T21:03:53.735Z,62.40
2019-03-31T21:06:25.081Z,61.68
2019-03-31T21:08:56.425Z,61.89
2019-03-31T21:11:27.765Z,61.87
2019-03-31T21:13:59.199Z,62.66
2019-03-31T21:16:30.564Z,62.24
2019-03-31T21:19:01.846Z,62.50
2019-03-31T21:21:33.142Z,62.21
2019-03-31T21:24:04.496Z,63.14
2019-03-31T21:26:35.851Z,63.50
2019-03-31T21:29:07.216Z,63.76
2019-03-31T21:31:38.599Z,62.79
2019-03-31T21:34:09.993Z,64.35
2019-03-31T21:36:41.352Z,64.78
2019-03-31T21:39:12.690Z,63.76
2019-03-31T21:41:44.001Z,64.43
2019-03-31T21:44:15.295Z,65.05
2019-03-31T21:46:46.614Z,65.15
2019-03-31T21:49:17.970Z,64.42
2019-03-31T21:51:49.295Z,64.65
2019-03-31T21:54:20.644Z,65.83
2019-03-31T21:56:51.929Z,65.83
2019-03-31T21:59:23.238Z,66.04
2019-03-31T22:01:54.576Z,65.60
2019-03-31T22:04:25.890Z,65.51
2019-03-31T22:06:57.337Z,65.75
2019-03-31T22:09:28.739Z,65.95
2019-03-31T22:12:00.080Z,66.49
2019-03-31T22:14:31.453Z,66.28
2019-03-31T22:17:02.791Z,65.77
2019-03-31T22:19:34.127Z,66.09
2019-03-31T22:22:05.462Z,65.03
2019-03-31T22:24:36.805Z,65.69
2019-03-31T22:27:08.148Z,64.88
2019-03-31T22:29:39.545Z,64.64
2019-03-31T22:32:10.925Z,64.20
2019-03-31T22:34:42.271Z,63.88
2019-03-31T22:37:13.550Z,63.59
2019-03-31T22:39:44.885Z,63.32
2019-03-31T22:42:17.541Z,63.54
2019-03-31T22:44:48.941Z,63.57
2019-03-31T22:47:20.196Z,63.85
2019-03-31T22:49:51.518Z,63.89
2019-03-31T22:52:22.782Z,63.87
2019-03-31T22:54:54.079Z,63.70
2019-03-31T22:57:25.512Z,63.81
2019-03-31T22:59:56.759Z,64.21
2019-03-31T23:02:28.107Z,64.32
2019-03-31T23:04:59.438Z,64.63
2019-03-31T23:07:30.769Z,64.96
2019-03-31T23:10:02.149Z,65.18
2019-03-31T23:12:33.477Z,65.07
2019-03-31T23:15:06.714Z,64.94
2019-03-31T23:17:38.127Z,65.02
2019-03-31T23:20:09.483Z,65.42
2019-03-31T23:22:40.833Z,65.24
2019-03-31T23:25:12.866Z,65.18
2019-03-31T23:27:44.142Z,65.27
2019-03-31T23:30:15.504Z,65.37
2019-03-31T23:32:46.836Z,65.79
2019-03-31T23:35:18.185Z,66.12
2019-03-31T23:37:49.449Z,65.75
2019-03-31T23:40:20.807Z,66.14
2019-03-31T23:42:52.098Z,66.19
2019-03-31T23:45:23.453Z,66.24
2019-03-31T23:47:56.137Z,65.89
2019-03-31T23:50:27.478Z,66.35
2019-03-31T23:52:58.757Z,66.09
2019-03-31T23:55:30.098Z,66.35
2019-03-31T23:58:01.437Z,66.28
